createdAt,value
2019-05-01T00:01:32.343Z,13.67
2019-05-01T00:04:24.277Z,13.65
2019-05-01T00:06:56.659Z,13.65
2019-05-01T00:09:27.396Z,13.70
2019-05-01T00:11:58.088Z,13.75
2019-05-01T00:14:28.583Z,13.83
2019-05-01T00:16:59.686Z,13.85
2019-05-01T00:19:30.099Z,13.86
2019-05-01T00:22:00.544Z,13.85
2019-05-01T00:24:30.891Z,13.83
2019-05-01T00:27:01.604Z,13.80
2019-05-01T00:29:32.415Z,13.77
2019-05-01T00:32:02.972Z,13.78
2019-05-01T00:34:33.622Z,13.75
2019-05-01T00:37:04.075Z,13.77
2019-05-01T00:39:34.459Z,13.77
2019-05-01T00:42:04.952Z,13.81
2019-05-01T00:44:35.373Z,13.82
2019-05-01T00:47:05.776Z,13.86
2019-05-01T00:49:36.128Z,13.91
2019-05-01T00:52:06.490Z,14.01
2019-05-01T00:54:38.516Z,14.05
2019-05-01T00:57:19.258Z,14.04
2019-05-01T01:00:08.285Z,14.08
2019-05-01T01:02:42.185Z,14.10
2019-05-01T01:05:13.724Z,14.13
2019-05-01T01:07:44.526Z,14.15
2019-05-01T01:10:15.328Z,14.12
2019-05-01T01:12:46.544Z,14.12
2019-05-01T01:15:17.160Z,14.09
2019-05-01T01:17:47.483Z,14.11
2019-05-01T01:20:17.810Z,14.14
2019-05-01T01:22:48.113Z,14.14
2019-05-01T01:25:18.520Z,14.13
2019-05-01T01:27:48.844Z,14.17
2019-05-01T01:30:19.835Z,14.20
2019-05-01T01:32:50.184Z,14.22
2019-05-01T01:35:20.786Z,14.20
2019-05-01T01:37:51.133Z,14.18
2019-05-01T01:40:21.561Z,14.20
2019-05-01T01:42:53.953Z,14.23
2019-05-01T01:45:34.372Z,14.27
2019-05-01T01:48:12.152Z,14.29
2019-05-01T01:50:45.938Z,14.25
2019-05-01T01:53:20.730Z,14.31
2019-05-01T01:55:52.367Z,14.36
2019-05-01T01:58:24.073Z,14.41
2019-05-01T02:01:21.245Z,14.48
2019-05-01T02:03:56.881Z,14.55
2019-05-01T02:06:27.383Z,14.63
2019-05-01T02:08:58.076Z,14.71
2019-05-01T02:11:28.607Z,14.76
2019-05-01T02:13:59.587Z,14.78
2019-05-01T02:16:29.909Z,14.80
2019-05-01T02:19:00.444Z,14.85
2019-05-01T02:21:31.096Z,14.85
2019-05-01T02:24:01.474Z,14.85
2019-05-01T02:26:35.366Z,14.89
2019-05-01T02:29:14.503Z,14.98
2019-05-01T02:31:48.324Z,15.01
2019-05-01T02:34:19.572Z,15.03
2019-05-01T02:36:52.696Z,15.03
2019-05-01T02:39:25.140Z,15.01
2019-05-01T02:42:00.185Z,15.03
2019-05-01T02:44:40.042Z,15.06
2019-05-01T02:47:15.431Z,15.09
2019-05-01T02:49:55.497Z,15.08
2019-05-01T02:52:31.568Z,15.08
2019-05-01T02:55:07.746Z,15.10
2019-05-01T02:57:41.255Z,15.13
2019-05-01T03:00:11.993Z,15.15
2019-05-01T03:02:42.862Z,15.17
2019-05-01T03:05:13.784Z,15.16
2019-05-01T03:07:44.959Z,15.17
2019-05-01T03:10:16.864Z,15.18
2019-05-01T03:12:51.137Z,15.17
2019-05-01T03:15:24.892Z,15.16
2019-05-01T03:18:03.254Z,15.16
2019-05-01T03:20:59.273Z,15.17
2019-05-01T03:23:39.589Z,15.13
2019-05-01T03:26:10.084Z,15.13
2019-05-01T03:28:40.674Z,15.12
2019-05-01T03:31:12.037Z,15.15
2019-05-01T03:33:42.818Z,15.09
2019-05-01T03:36:14.380Z,15.06
2019-05-01T03:38:45.883Z,15.04
2019-05-01T03:41:16.984Z,15.00
2019-05-01T03:43:47.822Z,15.02
2019-05-01T03:46:19.743Z,15.03
2019-05-01T03:48:50.850Z,15.05
2019-05-01T03:51:21.149Z,15.07
2019-05-01T03:53:51.870Z,15.11
2019-05-01T03:56:22.912Z,15.15
2019-05-01T03:58:53.344Z,15.10
2019-05-01T04:01:46.419Z,15.08
2019-05-01T04:04:20.311Z,15.02
2019-05-01T04:06:50.906Z,14.99
2019-05-01T04:09:21.275Z,14.96
2019-05-01T04:11:52.202Z,14.96
2019-05-01T04:14:22.921Z,14.95
2019-05-01T04:16:59.724Z,14.96
2019-05-01T04:19:30.825Z,14.94
2019-05-01T04:22:08.349Z,14.97
2019-05-01T04:24:42.144Z,14.94
2019-05-01T04:27:18.366Z,14.88
2019-05-01T04:29:56.261Z,14.87
2019-05-01T04:32:50.778Z,14.86
2019-05-01T04:35:26.519Z,14.82
2019-05-01T04:37:59.470Z,14.81
2019-05-01T04:40:30.020Z,14.84
2019-05-01T04:43:00.401Z,14.86
2019-05-01T04:45:31.422Z,14.88
2019-05-01T04:48:02.121Z,14.94
2019-05-01T04:50:32.908Z,14.92
2019-05-01T04:53:03.396Z,14.92
2019-05-01T04:55:34.168Z,14.95
2019-05-01T04:58:05.373Z,14.98
2019-05-01T05:00:36.118Z,15.02
2019-05-01T05:03:10.859Z,15.06
2019-05-01T05:05:41.190Z,15.07
2019-05-01T05:08:12.533Z,15.09
2019-05-01T05:10:43.559Z,15.09
2019-05-01T05:13:31.321Z,15.08
2019-05-01T05:16:07.926Z,15.09
2019-05-01T05:18:39.174Z,15.10
2019-05-01T05:21:10.262Z,15.18
2019-05-01T05:23:40.579Z,15.32
2019-05-01T05:26:10.929Z,15.54
2019-05-01T05:28:43.432Z,15.82
2019-05-01T05:31:14.955Z,16.10
2019-05-01T05:33:48.866Z,16.02
2019-05-01T05:36:22.909Z,16.01
2019-05-01T05:39:02.621Z,15.88
2019-05-01T05:41:36.910Z,15.82
2019-05-01T05:44:07.513Z,15.78
2019-05-01T05:46:37.795Z,15.82
2019-05-01T05:49:08.553Z,15.82
2019-05-01T05:52:07.272Z,15.84
2019-05-01T05:54:53.279Z,15.86
2019-05-01T05:57:37.553Z,15.84
2019-05-01T06:00:21.865Z,15.92
2019-05-01T06:03:01.756Z,16.07
2019-05-01T06:05:57.624Z,16.30
2019-05-01T06:08:32.077Z,16.51
2019-05-01T06:11:29.796Z,16.69
2019-05-01T06:14:19.060Z,16.85
2019-05-01T06:17:05.703Z,17.09
2019-05-01T06:19:50.958Z,17.28
2019-05-01T06:22:45.164Z,17.47
2019-05-01T06:25:25.084Z,17.81
2019-05-01T06:27:54.790Z,17.99
2019-05-01T06:30:25.397Z,18.10
2019-05-01T06:32:55.812Z,18.26
2019-05-01T06:35:26.887Z,18.16
2019-05-01T06:38:06.868Z,18.08
2019-05-01T06:40:42.430Z,17.98
2019-05-01T06:43:43.501Z,18.05
2019-05-01T06:46:42.237Z,17.89
2019-05-01T06:49:33.222Z,17.97
2019-05-01T06:52:06.476Z,18.08
2019-05-01T06:54:37.823Z,18.30
2019-05-01T06:57:12.597Z,18.47
2019-05-01T06:59:46.730Z,18.70
2019-05-01T07:02:19.497Z,18.87
2019-05-01T07:04:52.347Z,19.12
2019-05-01T07:07:25.467Z,19.44
2019-05-01T07:09:58.857Z,19.50
2019-05-01T07:12:32.521Z,19.57
2019-05-01T07:15:05.324Z,19.48
2019-05-01T07:17:36.918Z,19.44
2019-05-01T07:20:16.926Z,19.22
2019-05-01T07:22:49.317Z,19.27
2019-05-01T07:25:19.702Z,19.21
2019-05-01T07:27:53.974Z,19.14
2019-05-01T07:30:45.141Z,19.21
2019-05-01T07:33:16.693Z,19.17
2019-05-01T07:35:53.855Z,19.07
2019-05-01T07:38:23.593Z,18.94
2019-05-01T07:40:54.359Z,18.94
2019-05-01T07:43:43.316Z,18.77
2019-05-01T07:46:35.944Z,18.62
2019-05-01T07:49:07.058Z,18.65
2019-05-01T07:51:42.398Z,18.79
2019-05-01T07:54:11.259Z,19.13
2019-05-01T07:56:41.716Z,19.53
2019-05-01T07:59:12.216Z,19.81
2019-05-01T08:01:49.800Z,19.79
2019-05-01T08:04:35.246Z,19.72
2019-05-01T08:06:57.111Z,19.57
2019-05-01T08:09:29.059Z,19.31
2019-05-01T08:11:59.471Z,19.00
2019-05-01T08:14:30.259Z,18.84
2019-05-01T08:17:02.153Z,18.54
2019-05-01T08:19:56.213Z,18.31
2019-05-01T08:22:37.092Z,18.08
2019-05-01T08:25:08.786Z,18.01
2019-05-01T08:27:51.211Z,18.17
2019-05-01T08:30:47.968Z,18.47
2019-05-01T08:33:54.920Z,18.56
2019-05-01T08:36:25.733Z,18.53
2019-05-01T08:38:56.081Z,18.39
2019-05-01T08:41:31.304Z,18.20
2019-05-01T08:43:59.115Z,17.98
2019-05-01T08:46:50.965Z,17.79
2019-05-01T08:49:26.409Z,17.68
2019-05-01T08:51:56.741Z,17.76
2019-05-01T08:54:28.827Z,18.16
2019-05-01T08:56:59.966Z,18.72
2019-05-01T08:59:30.380Z,18.95
2019-05-01T09:02:09.517Z,19.20
2019-05-01T09:04:33.072Z,19.44
2019-05-01T09:07:03.397Z,19.67
2019-05-01T09:09:33.839Z,19.74
2019-05-01T09:12:07.000Z,19.65
2019-05-01T09:14:36.886Z,19.66
2019-05-01T09:17:07.520Z,19.74
2019-05-01T09:19:40.049Z,19.78
2019-05-01T09:22:11.625Z,19.87
2019-05-01T09:24:46.549Z,20.08
2019-05-01T09:27:31.326Z,20.26
2019-05-01T09:30:05.268Z,20.19
2019-05-01T09:32:35.617Z,20.08
2019-05-01T09:35:15.374Z,20.25
2019-05-01T09:37:38.698Z,20.35
2019-05-01T09:40:10.402Z,20.50
2019-05-01T09:42:40.815Z,20.59
2019-05-01T09:45:11.420Z,20.91
2019-05-01T09:47:41.835Z,21.28
2019-05-01T09:50:12.318Z,21.55
2019-05-01T09:53:05.690Z,21.21
2019-05-01T09:55:42.085Z,20.63
2019-05-01T09:58:12.744Z,20.69
2019-05-01T10:00:43.110Z,20.79
2019-05-01T10:03:16.955Z,20.68
2019-05-01T10:05:45.864Z,20.72
2019-05-01T10:08:16.117Z,20.84
2019-05-01T10:10:46.457Z,20.98
2019-05-01T10:13:17.649Z,20.72
2019-05-01T10:15:48.755Z,20.95
2019-05-01T10:18:19.183Z,21.32
2019-05-01T10:20:49.813Z,21.70
2019-05-01T10:23:20.519Z,22.17
2019-05-01T10:25:54.380Z,22.44
2019-05-01T10:28:40.009Z,22.65
2019-05-01T10:31:32.300Z,22.61
2019-05-01T10:34:12.804Z,22.25
2019-05-01T10:36:49.841Z,22.17
2019-05-01T10:39:21.092Z,22.04
2019-05-01T10:41:53.087Z,22.02
2019-05-01T10:44:26.684Z,22.27
2019-05-01T10:47:01.951Z,22.43
2019-05-01T10:49:32.607Z,22.09
2019-05-01T10:52:14.029Z,22.09
2019-05-01T10:54:38.514Z,22.28
2019-05-01T10:57:09.662Z,22.48
2019-05-01T10:59:45.955Z,22.85
2019-05-01T11:02:18.056Z,22.97
2019-05-01T11:04:48.446Z,22.83
2019-05-01T11:07:19.122Z,22.95
2019-05-01T11:09:49.929Z,23.02
2019-05-01T11:12:25.376Z,23.25
2019-05-01T11:14:58.589Z,23.38
2019-05-01T11:17:29.282Z,23.08
2019-05-01T11:19:59.604Z,22.88
2019-05-01T11:22:29.979Z,22.63
2019-05-01T11:25:00.475Z,22.47
2019-05-01T11:27:31.257Z,22.38
2019-05-01T11:30:01.677Z,22.23
2019-05-01T11:32:49.753Z,22.17
2019-05-01T11:35:48.204Z,22.31
2019-05-01T11:38:49.859Z,22.41
2019-05-01T11:41:43.490Z,22.38
2019-05-01T11:44:16.237Z,22.35
2019-05-01T11:46:49.456Z,22.40
2019-05-01T11:49:21.142Z,22.59
2019-05-01T11:51:54.531Z,22.64
2019-05-01T11:54:27.628Z,22.68
2019-05-01T11:56:59.141Z,22.97
2019-05-01T11:59:29.492Z,23.22
2019-05-01T12:02:02.661Z,23.60
2019-05-01T12:04:33.511Z,23.44
2019-05-01T12:07:03.858Z,23.47
2019-05-01T12:09:34.269Z,23.47
2019-05-01T12:12:08.158Z,23.54
2019-05-01T12:14:38.455Z,23.45
2019-05-01T12:17:26.015Z,23.58
2019-05-01T12:19:57.616Z,23.39
2019-05-01T12:22:28.091Z,23.18
2019-05-01T12:24:59.867Z,23.28
2019-05-01T12:27:30.241Z,23.09
2019-05-01T12:30:01.768Z,22.80
2019-05-01T12:32:32.461Z,22.68
2019-05-01T12:35:06.311Z,22.92
2019-05-01T12:37:50.319Z,23.01
2019-05-01T12:40:21.956Z,22.90
2019-05-01T12:42:52.338Z,22.88
2019-05-01T12:45:23.229Z,22.85
2019-05-01T12:47:55.486Z,22.90
2019-05-01T12:50:26.547Z,22.95
2019-05-01T12:53:14.685Z,22.73
2019-05-01T12:56:25.054Z,22.60
2019-05-01T12:58:51.638Z,22.37
2019-05-01T13:01:33.559Z,22.58
2019-05-01T13:04:04.131Z,22.61
2019-05-01T13:06:34.562Z,22.76
2019-05-01T13:09:06.286Z,22.80
2019-05-01T13:11:39.815Z,22.70
2019-05-01T13:14:13.248Z,22.20
2019-05-01T13:16:44.826Z,22.01
2019-05-01T13:19:17.880Z,21.96
2019-05-01T13:21:51.231Z,21.85
2019-05-01T13:24:26.780Z,21.74
2019-05-01T13:27:07.183Z,21.90
2019-05-01T13:29:53.147Z,22.08
2019-05-01T13:32:57.493Z,22.40
2019-05-01T13:35:30.481Z,22.40
2019-05-01T13:38:01.318Z,22.44
2019-05-01T13:40:34.396Z,22.56
2019-05-01T13:43:04.975Z,22.59
2019-05-01T13:45:35.367Z,22.78
2019-05-01T13:48:07.809Z,22.88
2019-05-01T13:50:39.761Z,22.74
2019-05-01T13:53:10.658Z,22.78
2019-05-01T13:55:42.473Z,22.81
2019-05-01T13:58:15.542Z,22.69
2019-05-01T14:00:46.363Z,22.63
2019-05-01T14:03:18.564Z,22.70
2019-05-01T14:05:50.997Z,22.79
2019-05-01T14:08:22.523Z,22.96
2019-05-01T14:10:54.033Z,22.99
2019-05-01T14:13:24.419Z,22.98
2019-05-01T14:15:57.520Z,22.95
2019-05-01T14:18:29.662Z,22.94
2019-05-01T14:21:09.883Z,22.91
2019-05-01T14:23:59.216Z,22.94
2019-05-01T14:26:30.334Z,22.99
2019-05-01T14:29:01.024Z,23.02
2019-05-01T14:31:34.330Z,22.85
2019-05-01T14:34:04.729Z,22.81
2019-05-01T14:36:35.055Z,22.78
2019-05-01T14:39:06.896Z,22.72
2019-05-01T14:41:37.440Z,22.81
2019-05-01T14:44:08.453Z,22.98
2019-05-01T14:46:39.041Z,22.99
2019-05-01T14:49:12.254Z,22.91
2019-05-01T14:51:44.418Z,22.63
2019-05-01T14:54:14.738Z,22.70
2019-05-01T14:56:45.112Z,22.76
2019-05-01T14:59:17.639Z,22.64
2019-05-01T15:01:50.087Z,22.57
2019-05-01T15:04:23.603Z,22.38
2019-05-01T15:06:58.466Z,22.31
2019-05-01T15:09:28.971Z,22.44
2019-05-01T15:12:00.174Z,22.44
2019-05-01T15:15:01.924Z,22.40
2019-05-01T15:17:37.721Z,22.29
2019-05-01T15:20:08.751Z,22.24
2019-05-01T15:22:39.136Z,22.33
2019-05-01T15:25:11.374Z,22.35
2019-05-01T15:27:42.078Z,22.31
2019-05-01T15:30:16.437Z,22.22
2019-05-01T15:32:46.806Z,22.09
2019-05-01T15:35:17.141Z,22.12
2019-05-01T15:37:56.616Z,22.14
2019-05-01T15:40:37.648Z,22.16
2019-05-01T15:43:33.039Z,22.05
2019-05-01T15:46:03.733Z,22.01
2019-05-01T15:48:34.869Z,21.92
2019-05-01T15:51:05.225Z,21.95
2019-05-01T15:53:35.760Z,21.99
2019-05-01T15:56:06.484Z,21.97
2019-05-01T15:58:36.844Z,22.03
2019-05-01T16:01:07.133Z,21.96
2019-05-01T16:03:38.189Z,21.95
2019-05-01T16:06:08.593Z,21.85
2019-05-01T16:08:38.915Z,21.76
2019-05-01T16:11:34.069Z,21.70
2019-05-01T16:14:04.449Z,21.70
2019-05-01T16:16:35.158Z,21.72
2019-05-01T16:19:05.761Z,21.79
2019-05-01T16:21:36.053Z,21.78
2019-05-01T16:24:06.446Z,21.65
2019-05-01T16:26:36.864Z,21.51
2019-05-01T16:29:07.432Z,21.39
2019-05-01T16:31:38.150Z,21.36
2019-05-01T16:34:08.509Z,21.34
2019-05-01T16:36:39.228Z,21.30
2019-05-01T16:39:28.802Z,21.25
2019-05-01T16:41:59.218Z,21.20
2019-05-01T16:44:29.893Z,21.15
2019-05-01T16:47:03.167Z,21.15
2019-05-01T16:49:33.693Z,21.16
2019-05-01T16:52:04.313Z,21.24
2019-05-01T16:54:34.636Z,21.29
2019-05-01T16:57:06.568Z,21.24
2019-05-01T16:59:43.545Z,21.24
2019-05-01T17:02:25.078Z,21.18
2019-05-01T17:05:29.590Z,21.09
2019-05-01T17:08:35.578Z,21.00
2019-05-01T17:10:57.001Z,20.94
2019-05-01T17:13:29.697Z,20.92
2019-05-01T17:16:00.912Z,20.81
2019-05-01T17:18:33.423Z,20.72
2019-05-01T17:21:04.126Z,20.70
2019-05-01T17:23:34.524Z,20.70
2019-05-01T17:26:12.700Z,20.71
2019-05-01T17:28:43.386Z,20.68
2019-05-01T17:31:13.735Z,20.69
2019-05-01T17:33:44.871Z,20.67
2019-05-01T17:36:15.287Z,20.56
2019-05-01T17:38:49.622Z,20.47
2019-05-01T17:41:18.300Z,20.41
2019-05-01T17:43:49.309Z,20.37
2019-05-01T17:46:20.918Z,20.30
2019-05-01T17:48:51.669Z,20.25
2019-05-01T17:51:22.012Z,20.19
2019-05-01T17:53:52.439Z,20.13
2019-05-01T17:56:28.130Z,20.10
2019-05-01T17:58:55.343Z,20.06
2019-05-01T18:01:56.934Z,20.04
2019-05-01T18:08:07.833Z,19.86
2019-05-01T18:10:39.733Z,19.80
2019-05-01T18:13:10.151Z,19.76
2019-05-01T18:15:40.646Z,19.71
2019-05-01T18:18:15.277Z,19.67
2019-05-01T18:20:44.447Z,19.64
2019-05-01T18:23:32.642Z,19.61
2019-05-01T18:26:27.957Z,19.56
2019-05-01T18:29:23.400Z,19.53
2019-05-01T18:31:53.897Z,19.50
2019-05-01T18:34:24.238Z,19.47
2019-05-01T18:37:03.482Z,19.45
2019-05-01T18:39:36.956Z,19.42
2019-05-01T18:42:10.559Z,19.43
2019-05-01T18:44:42.423Z,19.44
2019-05-01T18:47:17.934Z,19.45
2019-05-01T18:49:48.238Z,19.46
2019-05-01T18:52:19.329Z,19.44
2019-05-01T18:54:49.821Z,19.39
2019-05-01T18:57:20.360Z,19.34
2019-05-01T18:59:51.004Z,19.28
2019-05-01T19:02:25.108Z,19.27
2019-05-01T19:04:53.635Z,19.22
2019-05-01T19:07:24.059Z,19.15
2019-05-01T19:09:54.425Z,19.09
2019-05-01T19:12:27.108Z,19.04
2019-05-01T19:15:00.260Z,18.99
2019-05-01T19:17:29.793Z,18.97
2019-05-01T19:20:00.501Z,18.91
2019-05-01T19:22:30.875Z,18.86
2019-05-01T19:25:01.477Z,18.85
2019-05-01T19:27:31.846Z,18.83
2019-05-01T19:30:02.203Z,18.83
2019-05-01T19:32:33.024Z,18.80
2019-05-01T19:35:03.320Z,18.77
2019-05-01T19:37:34.339Z,18.73
2019-05-01T19:40:05.274Z,18.65
2019-05-01T19:42:35.622Z,18.61
2019-05-01T19:45:06.701Z,18.55
2019-05-01T19:47:37.058Z,18.50
2019-05-01T19:50:11.294Z,18.45
2019-05-01T19:52:41.834Z,18.42
2019-05-01T19:55:12.248Z,18.38
2019-05-01T19:57:42.991Z,18.36
2019-05-01T20:00:15.989Z,18.34
2019-05-01T20:02:46.288Z,18.32
2019-05-01T20:05:16.615Z,18.29
2019-05-01T20:07:51.195Z,18.28
2019-05-01T20:10:19.440Z,18.24
2019-05-01T20:12:50.096Z,18.19
2019-05-01T20:15:25.086Z,18.16
2019-05-01T20:17:59.157Z,18.12
2019-05-01T20:20:30.364Z,18.07
2019-05-01T20:23:01.193Z,18.02
2019-05-01T20:25:34.064Z,17.98
2019-05-01T20:28:04.423Z,17.96
2019-05-01T20:30:35.309Z,17.96
2019-05-01T20:33:09.832Z,17.95
2019-05-01T20:35:40.400Z,17.91
2019-05-01T20:38:10.769Z,17.89
2019-05-01T20:40:41.171Z,17.85
2019-05-01T20:43:11.819Z,17.83
2019-05-01T20:45:44.951Z,17.83
2019-05-01T20:48:18.420Z,17.76
2019-05-01T20:50:46.664Z,17.74
2019-05-01T20:53:17.056Z,17.69
2019-05-01T20:55:55.028Z,17.65
2019-05-01T20:58:25.451Z,17.60
2019-05-01T21:00:59.629Z,17.58
2019-05-01T21:03:29.990Z,17.55
2019-05-01T21:06:10.784Z,17.52
2019-05-01T21:08:48.683Z,17.49
2019-05-01T21:11:24.750Z,17.44
2019-05-01T21:14:15.662Z,17.41
2019-05-01T21:16:32.883Z,17.39
2019-05-01T21:19:02.514Z,17.37
2019-05-01T21:21:34.374Z,17.35
2019-05-01T21:24:05.694Z,17.32
2019-05-01T21:26:36.940Z,17.28
2019-05-01T21:29:07.674Z,17.24
2019-05-01T21:31:38.052Z,17.24
2019-05-01T21:34:08.694Z,17.24
2019-05-01T21:36:39.378Z,17.18
2019-05-01T21:39:10.121Z,17.15
2019-05-01T21:41:43.169Z,17.15
2019-05-01T21:44:13.359Z,17.11
2019-05-01T21:46:43.881Z,17.09
2019-05-01T21:49:16.021Z,17.07
2019-05-01T21:51:47.133Z,17.08
2019-05-01T21:54:20.652Z,17.12
2019-05-01T21:56:51.702Z,17.14
2019-05-01T21:59:22.027Z,17.18
2019-05-01T22:01:52.737Z,17.18
2019-05-01T22:04:32.063Z,17.27
2019-05-01T22:06:59.276Z,17.33
2019-05-01T22:09:30.606Z,17.38
2019-05-01T22:12:01.084Z,17.41
2019-05-01T22:14:43.747Z,17.43
2019-05-01T22:17:35.004Z,17.45
2019-05-01T22:20:11.565Z,17.47
2019-05-01T22:22:51.414Z,17.48
2019-05-01T22:25:46.683Z,17.48
2019-05-01T22:28:25.248Z,17.44
2019-05-01T22:31:32.911Z,17.42
2019-05-01T22:34:15.248Z,17.33
2019-05-01T22:36:55.504Z,17.34
2019-05-01T22:39:28.937Z,17.28
2019-05-01T22:41:59.613Z,17.24
2019-05-01T22:44:30.166Z,17.22
2019-05-01T22:47:00.516Z,17.19
2019-05-01T22:49:30.877Z,17.14
2019-05-01T22:52:01.256Z,17.12
2019-05-01T22:54:31.800Z,17.13
2019-05-01T22:57:02.134Z,17.10
2019-05-01T22:59:32.932Z,17.08
2019-05-01T23:02:13.347Z,17.02
2019-05-01T23:04:43.710Z,16.95
2019-05-01T23:07:16.849Z,16.92
2019-05-01T23:09:47.114Z,16.86
2019-05-01T23:12:17.457Z,16.81
2019-05-01T23:14:50.485Z,16.78
2019-05-01T23:17:39.490Z,16.75
2019-05-01T23:20:09.981Z,16.71
2019-05-01T23:22:41.139Z,16.67
2019-05-01T23:25:11.862Z,16.66
2019-05-01T23:27:42.513Z,16.60
2019-05-01T23:30:18.080Z,16.56
2019-05-01T23:32:48.506Z,16.52
2019-05-01T23:35:18.835Z,16.48
2019-05-01T23:37:49.413Z,16.47
2019-05-01T23:40:19.911Z,16.42
2019-05-01T23:42:53.679Z,16.39
2019-05-01T23:45:23.123Z,16.34
2019-05-01T23:47:53.777Z,16.34
2019-05-01T23:50:24.244Z,16.30
2019-05-01T23:52:56.273Z,16.28
2019-05-01T23:55:29.803Z,16.23
2019-05-01T23:58:00.128Z,16.16
